Mount Etna, Indiana
Current Conditions -  °F | °C
As of 12:15 AM on Monday 20 Oct 2014 (Local Time) from KHHG Reporting Station
Overcast Overcast  
Wind Chill: 47°   Ceiling: 9000
Heat Index: 47°   Visibility: 10mi
Dew Point: 41°   Wind: 3mph
Humidity: 80%   Direction: 240°WSW
Pressure: 30"   Gusts: NA
Location:  40.9238°N, 85.5001°W
Report Text: KHHG 200415Z AUTO 24003KT 10SM BKN090 OVC110 08/05 A3000 RMK AO2 T00830050
Loading
Personal Weather Stations






























Interactive Weather Map
Tropical Storm Tracking
New forecast layout! Learn more

10-Day Weather Forecast

Advertisements
Track Severe Weather on mobile